createdAt,value
2023-04-02T00:01:20.316Z,14.54
2023-04-02T00:03:59.321Z,14.56
2023-04-02T00:06:30.602Z,14.59
2023-04-02T00:09:50.615Z,14.55
2023-04-02T00:12:19.263Z,14.59
2023-04-02T00:14:53.661Z,14.50
2023-04-02T00:17:25.036Z,14.42
2023-04-02T00:20:10.792Z,14.37
2023-04-02T00:22:47.432Z,14.27
2023-04-02T00:25:15.500Z,14.26
2023-04-02T00:27:43.813Z,14.24
2023-04-02T00:30:15.730Z,14.20
2023-04-02T00:32:44.218Z,14.23
2023-04-02T00:35:36.419Z,14.26
2023-04-02T00:38:04.773Z,14.22
2023-04-02T00:40:33.325Z,14.17
2023-04-02T00:43:04.435Z,14.20
2023-04-02T00:45:38.973Z,14.26
2023-04-02T00:48:40.261Z,14.29
2023-04-02T00:52:10.257Z,14.30
2023-04-02T00:55:35.943Z,14.24
2023-04-02T00:58:24.384Z,14.15
2023-04-02T01:01:04.757Z,14.04
2023-04-02T01:04:54.860Z,13.99
2023-04-02T01:07:37.535Z,13.85
2023-04-02T01:10:36.688Z,13.76
2023-04-02T01:13:30.024Z,13.75
2023-04-02T01:16:32.322Z,13.60
2023-04-02T01:20:05.328Z,13.46
2023-04-02T01:23:03.353Z,13.43
2023-04-02T01:26:42.913Z,13.31
2023-04-02T01:29:19.130Z,13.21
2023-04-02T01:31:50.662Z,12.95
2023-04-02T01:34:40.764Z,12.94
2023-04-02T01:38:19.019Z,12.93
2023-04-02T01:41:36.648Z,12.80
2023-04-02T01:45:14.112Z,12.76
2023-04-02T01:47:43.858Z,12.63
2023-04-02T01:50:59.910Z,12.54
2023-04-02T01:53:30.046Z,12.47
2023-04-02T01:56:09.400Z,12.54
2023-04-02T01:58:50.884Z,12.57
2023-04-02T02:01:58.361Z,12.51
2023-04-02T02:04:46.877Z,12.42
2023-04-02T02:07:36.182Z,12.40
2023-04-02T02:10:34.190Z,12.08
2023-04-02T02:13:16.345Z,11.84
2023-04-02T02:15:51.463Z,11.86
2023-04-02T02:18:23.636Z,11.47
2023-04-02T02:20:55.339Z,11.74
2023-04-02T02:23:23.542Z,11.72
2023-04-02T02:25:51.709Z,11.59
2023-04-02T02:28:44.998Z,11.58
2023-04-02T02:31:22.755Z,11.68
2023-04-02T02:33:53.374Z,11.67
2023-04-02T02:36:29.436Z,11.79
2023-04-02T02:39:33.716Z,11.73
2023-04-02T02:42:32.904Z,11.86
2023-04-02T02:45:01.674Z,11.79
2023-04-02T02:47:31.807Z,11.91
2023-04-02T02:50:23.644Z,11.93
2023-04-02T02:52:58.228Z,11.92
2023-04-02T02:55:33.164Z,12.03
2023-04-02T02:58:26.521Z,11.97
2023-04-02T03:01:01.740Z,12.09
2023-04-02T03:03:32.692Z,12.09
2023-04-02T03:06:08.623Z,12.16
2023-04-02T03:09:05.768Z,12.14
2023-04-02T03:11:51.268Z,12.00
2023-04-02T03:14:30.955Z,12.03
2023-04-02T03:17:22.212Z,12.16
2023-04-02T03:19:55.206Z,12.19
2023-04-02T03:22:32.156Z,12.10
2023-04-02T03:25:25.098Z,12.01
2023-04-02T03:28:03.271Z,12.11
2023-04-02T03:30:41.509Z,12.22
2023-04-02T03:33:55.912Z,12.28
2023-04-02T03:36:33.500Z,12.30
2023-04-02T03:39:09.243Z,12.34
2023-04-02T03:42:17.368Z,12.37
2023-04-02T03:44:55.466Z,12.42
2023-04-02T03:47:38.008Z,12.42
2023-04-02T03:50:24.555Z,12.28
2023-04-02T03:52:54.117Z,12.21
2023-04-02T03:55:25.380Z,12.28
2023-04-02T03:58:12.664Z,12.36
2023-04-02T04:01:20.081Z,12.37
2023-04-02T04:03:54.216Z,12.27
2023-04-02T04:06:31.174Z,12.26
2023-04-02T04:09:24.411Z,12.17
2023-04-02T04:12:02.537Z,12.10
2023-04-02T04:14:37.507Z,12.14
2023-04-02T04:17:46.663Z,12.16
2023-04-02T04:20:26.295Z,12.20
2023-04-02T04:22:56.140Z,12.21
2023-04-02T04:25:34.225Z,12.23
2023-04-02T04:28:48.392Z,12.30
2023-04-02T04:31:47.265Z,12.38
2023-04-02T04:34:27.039Z,12.24
2023-04-02T04:37:01.643Z,12.25
2023-04-02T04:39:53.909Z,12.34
2023-04-02T04:42:52.349Z,12.36
2023-04-02T04:45:47.310Z,12.46
2023-04-02T04:48:21.058Z,12.47
2023-04-02T04:50:54.366Z,12.52
2023-04-02T04:53:26.784Z,12.51
2023-04-02T04:56:18.070Z,12.46
2023-04-02T04:59:48.706Z,12.56
2023-04-02T05:02:23.096Z,12.62
2023-04-02T05:04:52.902Z,12.64
2023-04-02T05:07:43.111Z,12.70
2023-04-02T05:11:11.330Z,12.62
2023-04-02T05:13:52.465Z,12.49
2023-04-02T05:16:39.232Z,12.46
2023-04-02T05:19:22.573Z,12.10
2023-04-02T05:22:50.120Z,12.12
2023-04-02T05:25:43.737Z,12.12
2023-04-02T05:28:26.635Z,12.14
2023-04-02T05:31:12.486Z,12.15
2023-04-02T05:34:10.542Z,12.25
2023-04-02T05:36:38.889Z,12.25
2023-04-02T05:39:19.555Z,12.18
2023-04-02T05:42:09.151Z,12.14
2023-04-02T05:45:43.289Z,11.96
2023-04-02T05:48:29.313Z,12.10
2023-04-02T05:50:58.926Z,12.03
2023-04-02T05:53:54.095Z,11.89
2023-04-02T05:56:46.860Z,11.76
2023-04-02T05:59:22.890Z,11.71
2023-04-02T06:02:58.066Z,11.73
2023-04-02T06:05:36.397Z,11.69
2023-04-02T06:08:42.994Z,11.84
2023-04-02T06:11:42.552Z,11.86
2023-04-02T06:14:16.554Z,11.94
2023-04-02T06:16:46.345Z,11.91
2023-04-02T06:19:40.372Z,11.93
2023-04-02T06:22:58.626Z,11.94
2023-04-02T06:25:38.926Z,11.89
2023-04-02T06:28:28.571Z,11.99
2023-04-02T06:31:56.917Z,12.00
2023-04-02T06:34:27.914Z,11.87
2023-04-02T06:37:38.091Z,12.10
2023-04-02T06:41:10.799Z,12.11
2023-04-02T06:44:23.502Z,12.34
2023-04-02T06:47:57.445Z,12.24
2023-04-02T06:51:07.404Z,11.51
2023-04-02T06:53:55.227Z,11.83
2023-04-02T06:56:47.121Z,11.76
2023-04-02T06:59:20.918Z,11.83
2023-04-02T07:02:15.574Z,11.71
2023-04-02T07:05:09.436Z,11.80
2023-04-02T07:07:40.735Z,11.91
2023-04-02T07:10:12.547Z,12.17
2023-04-02T07:12:41.129Z,12.34
2023-04-02T07:15:19.027Z,12.37
2023-04-02T07:17:47.478Z,12.28
2023-04-02T07:20:34.539Z,12.05
2023-04-02T07:23:06.426Z,12.09
2023-04-02T07:25:34.995Z,12.21
2023-04-02T07:28:04.580Z,12.22
2023-04-02T07:30:32.839Z,12.09
2023-04-02T07:33:01.974Z,11.97
2023-04-02T07:35:30.453Z,11.78
2023-04-02T07:37:59.190Z,11.62
2023-04-02T07:40:47.861Z,11.58
2023-04-02T07:43:16.170Z,11.72
2023-04-02T07:45:46.673Z,11.86
2023-04-02T07:48:17.128Z,11.84
2023-04-02T07:51:25.233Z,11.89
2023-04-02T07:54:13.142Z,11.91
2023-04-02T07:56:43.870Z,11.72
2023-04-02T07:59:18.304Z,11.76
2023-04-02T08:01:47.407Z,11.78
2023-04-02T08:04:22.174Z,11.55
2023-04-02T08:06:53.265Z,11.41
2023-04-02T08:09:21.442Z,11.44
2023-04-02T08:11:49.524Z,11.32
2023-04-02T08:14:21.157Z,11.25
2023-04-02T08:16:53.210Z,11.43
2023-04-02T08:19:54.050Z,11.47
2023-04-02T08:22:23.397Z,11.46
2023-04-02T08:24:51.686Z,11.45
2023-04-02T08:27:51.790Z,11.33
2023-04-02T08:30:20.325Z,11.14
2023-04-02T08:32:51.140Z,11.32
2023-04-02T08:35:42.640Z,11.39
2023-04-02T08:38:18.618Z,11.40
2023-04-02T08:40:54.568Z,11.30
2023-04-02T08:44:18.463Z,11.37
2023-04-02T08:47:11.534Z,11.43
2023-04-02T08:50:02.448Z,11.34
2023-04-02T08:53:16.465Z,11.34
2023-04-02T08:56:36.576Z,11.38
2023-04-02T08:59:41.034Z,11.16
2023-04-02T09:02:47.064Z,11.00
2023-04-02T09:05:41.204Z,10.95
2023-04-02T09:08:25.035Z,10.95
2023-04-02T09:11:17.787Z,11.00
2023-04-02T09:13:46.752Z,11.16
2023-04-02T09:16:17.848Z,11.18
2023-04-02T09:18:47.225Z,11.19
2023-04-02T09:21:21.903Z,11.31
2023-04-02T09:24:13.551Z,11.34
2023-04-02T09:26:44.355Z,11.12
2023-04-02T09:29:12.459Z,11.14
2023-04-02T09:32:30.350Z,10.92
2023-04-02T09:35:25.495Z,11.15
2023-04-02T09:38:19.323Z,11.18
2023-04-02T09:40:54.085Z,11.22
2023-04-02T09:43:27.008Z,11.30
2023-04-02T09:46:24.693Z,11.22
2023-04-02T09:49:01.232Z,11.30
2023-04-02T09:51:34.365Z,11.24
2023-04-02T09:54:02.568Z,11.01
2023-04-02T09:56:32.569Z,11.11
2023-04-02T09:59:13.166Z,10.96
2023-04-02T10:01:55.930Z,10.72
2023-04-02T10:04:36.996Z,10.71
2023-04-02T10:07:54.079Z,10.61
2023-04-02T10:10:27.230Z,11.07
2023-04-02T10:13:00.579Z,11.27
2023-04-02T10:16:13.156Z,11.25
2023-04-02T10:19:46.268Z,11.24
2023-04-02T10:22:21.051Z,11.21
2023-04-02T10:24:50.082Z,11.09
2023-04-02T10:27:40.106Z,11.08
2023-04-02T10:30:57.527Z,11.04
2023-04-02T10:33:41.281Z,11.00
2023-04-02T10:36:27.459Z,11.08
2023-04-02T10:39:21.718Z,10.99
2023-04-02T10:41:53.772Z,10.94
2023-04-02T10:44:48.443Z,10.83
2023-04-02T10:47:41.284Z,10.94
2023-04-02T10:50:44.825Z,10.84
2023-04-02T10:53:21.575Z,10.92
2023-04-02T10:55:59.242Z,10.95
2023-04-02T10:58:30.660Z,11.01
2023-04-02T11:01:08.050Z,10.80
2023-04-02T11:03:46.979Z,10.96
2023-04-02T11:06:28.484Z,11.07
2023-04-02T11:09:26.803Z,11.23
2023-04-02T11:11:56.608Z,11.29
2023-04-02T11:14:31.093Z,11.36
2023-04-02T11:17:01.516Z,11.37
2023-04-02T11:19:31.661Z,11.39
2023-04-02T11:22:24.747Z,11.24
2023-04-02T11:24:56.529Z,11.40
2023-04-02T11:27:48.265Z,11.41
2023-04-02T11:30:23.044Z,11.64
2023-04-02T11:32:53.826Z,11.62
2023-04-02T11:35:45.071Z,11.70
2023-04-02T11:38:29.367Z,11.59
2023-04-02T11:40:59.028Z,11.54
2023-04-02T11:43:33.241Z,11.67
2023-04-02T11:46:12.260Z,11.82
2023-04-02T11:48:41.038Z,11.78
2023-04-02T11:51:21.444Z,11.88
2023-04-02T11:53:53.994Z,11.64
2023-04-02T11:57:04.692Z,11.63
2023-04-02T11:59:47.076Z,11.66
2023-04-02T12:02:53.581Z,11.61
2023-04-02T12:05:30.222Z,11.67
2023-04-02T12:08:23.205Z,11.54
2023-04-02T12:11:03.664Z,11.48
2023-04-02T12:13:44.025Z,11.57
2023-04-02T12:16:13.181Z,11.52
2023-04-02T12:18:53.722Z,11.44
2023-04-02T12:21:30.928Z,11.43
2023-04-02T12:23:59.398Z,11.40
2023-04-02T12:26:37.930Z,11.10
2023-04-02T12:29:37.351Z,11.05
2023-04-02T12:32:31.196Z,10.94
2023-04-02T12:34:59.446Z,10.63
2023-04-02T12:37:29.261Z,10.62
2023-04-02T12:40:14.725Z,10.77
2023-04-02T12:42:52.142Z,10.95
2023-04-02T12:45:29.900Z,11.24
2023-04-02T12:48:01.164Z,11.34
2023-04-02T12:50:32.410Z,11.46
2023-04-02T12:53:01.441Z,11.26
2023-04-02T12:55:36.692Z,11.27
2023-04-02T12:58:04.904Z,11.17
2023-04-02T13:00:36.632Z,11.22
2023-04-02T13:03:08.025Z,11.07
2023-04-02T13:05:43.115Z,11.14
2023-04-02T13:08:44.268Z,10.96
2023-04-02T13:11:26.052Z,11.11
2023-04-02T13:14:00.208Z,10.96
2023-04-02T13:16:41.938Z,10.78
2023-04-02T13:19:17.595Z,10.39
2023-04-02T13:21:46.185Z,10.57
2023-04-02T13:24:36.288Z,10.78
2023-04-02T13:27:04.763Z,10.83
2023-04-02T13:29:34.672Z,11.01
2023-04-02T13:32:10.572Z,10.97
2023-04-02T13:34:38.914Z,10.70
2023-04-02T13:37:07.030Z,10.89
2023-04-02T13:39:35.494Z,10.81
2023-04-02T13:42:27.115Z,10.65
2023-04-02T13:44:55.429Z,10.48
2023-04-02T13:47:49.273Z,10.42
2023-04-02T13:50:24.032Z,10.55
2023-04-02T13:53:19.134Z,10.52
2023-04-02T13:55:56.166Z,10.62
2023-04-02T13:58:34.631Z,10.54
2023-04-02T14:01:03.112Z,10.23
2023-04-02T14:04:02.580Z,9.99
2023-04-02T14:06:49.690Z,9.72
2023-04-02T14:10:45.790Z,9.90
2023-04-02T14:14:07.644Z,10.07
2023-04-02T14:17:58.024Z,10.18
2023-04-02T14:21:08.613Z,10.36
2023-04-02T14:23:53.822Z,10.30
2023-04-02T14:26:39.656Z,10.18
2023-04-02T14:30:04.089Z,10.36
2023-04-02T14:33:05.739Z,10.47
2023-04-02T14:35:46.024Z,10.30
2023-04-02T14:39:00.888Z,10.18
2023-04-02T14:41:50.729Z,10.35
2023-04-02T14:44:20.754Z,10.46
2023-04-02T14:46:48.847Z,10.46
2023-04-02T14:49:35.041Z,10.53
2023-04-02T14:52:05.142Z,10.58
2023-04-02T14:54:55.257Z,10.67
2023-04-02T14:57:41.558Z,10.77
2023-04-02T15:00:49.333Z,10.79
2023-04-02T15:03:23.118Z,10.88
2023-04-02T15:05:59.937Z,10.96
2023-04-02T15:09:06.120Z,11.04
2023-04-02T15:11:39.601Z,11.12
2023-04-02T15:14:24.075Z,11.03
2023-04-02T15:16:52.225Z,11.00
2023-04-02T15:19:20.401Z,10.96
2023-04-02T15:22:09.519Z,11.07
2023-04-02T15:24:41.192Z,11.10
2023-04-02T15:27:43.353Z,10.83
2023-04-02T15:30:25.994Z,10.62
2023-04-02T15:32:56.522Z,10.53
2023-04-02T15:35:43.875Z,10.36
2023-04-02T15:38:42.600Z,10.14
2023-04-02T15:41:27.800Z,10.14
2023-04-02T15:44:00.948Z,10.08
2023-04-02T15:46:47.825Z,10.15
2023-04-02T15:49:41.837Z,9.93
2023-04-02T15:52:31.354Z,9.63
2023-04-02T15:55:22.479Z,9.52
2023-04-02T15:58:24.910Z,9.53
2023-04-02T16:01:18.640Z,9.68
2023-04-02T16:04:34.465Z,9.64
2023-04-02T16:07:24.279Z,9.62
2023-04-02T16:10:38.039Z,9.35
2023-04-02T16:13:39.468Z,9.39
2023-04-02T16:16:28.818Z,9.45
2023-04-02T16:19:24.759Z,9.28
2023-04-02T16:22:13.373Z,9.29
2023-04-02T16:24:41.738Z,9.43
2023-04-02T16:28:08.879Z,9.46
2023-04-02T16:31:24.688Z,9.41
2023-04-02T16:34:43.540Z,9.41
2023-04-02T16:37:48.762Z,9.53
2023-04-02T16:40:45.155Z,9.55
2023-04-02T16:44:00.624Z,9.44
2023-04-02T16:46:55.236Z,9.45
2023-04-02T16:50:02.425Z,9.58
2023-04-02T16:53:35.434Z,9.65
2023-04-02T16:56:53.226Z,9.58
2023-04-02T16:59:44.486Z,9.40
2023-04-02T17:02:37.170Z,9.39
2023-04-02T17:05:46.970Z,9.33
2023-04-02T17:08:33.257Z,9.43
2023-04-02T17:11:05.950Z,9.42
2023-04-02T17:13:41.844Z,9.41
2023-04-02T17:16:22.919Z,9.22
2023-04-02T17:18:57.645Z,9.26
2023-04-02T17:21:27.848Z,9.39
2023-04-02T17:24:17.492Z,9.46
2023-04-02T17:26:48.740Z,9.45
2023-04-02T17:29:44.796Z,9.37
2023-04-02T17:32:26.626Z,9.31
2023-04-02T17:34:57.265Z,9.33
2023-04-02T17:38:05.924Z,9.42
2023-04-02T17:40:45.502Z,9.53
2023-04-02T17:44:12.550Z,9.49
2023-04-02T17:48:17.053Z,9.45
2023-04-02T17:51:06.986Z,9.47
2023-04-02T17:54:03.634Z,9.22
2023-04-02T17:57:29.575Z,9.20
2023-04-02T18:00:51.183Z,9.26
2023-04-02T18:04:09.627Z,9.30
2023-04-02T18:07:42.534Z,9.27
2023-04-02T18:10:24.788Z,9.19
2023-04-02T18:13:27.393Z,9.27
2023-04-02T18:16:21.269Z,9.13
2023-04-02T18:19:23.065Z,9.07
2023-04-02T18:22:05.691Z,9.32
2023-04-02T18:25:11.742Z,9.46
2023-04-02T18:28:09.043Z,9.59
2023-04-02T18:31:08.285Z,9.66
2023-04-02T18:34:47.533Z,9.63
2023-04-02T18:37:33.499Z,9.64
2023-04-02T18:40:26.905Z,9.61
2023-04-02T18:43:10.336Z,9.56
2023-04-02T18:46:10.188Z,9.69
2023-04-02T18:49:20.688Z,9.78
2023-04-02T18:52:25.348Z,9.63
2023-04-02T18:54:59.459Z,9.52
2023-04-02T18:57:36.253Z,9.54
2023-04-02T19:00:15.510Z,9.59
2023-04-02T19:03:07.148Z,9.47
2023-04-02T19:06:15.029Z,9.30
2023-04-02T19:08:48.836Z,9.46
2023-04-02T19:11:31.861Z,9.54
2023-04-02T19:14:21.401Z,9.48
2023-04-02T19:17:29.139Z,9.37
2023-04-02T19:20:21.264Z,9.49
2023-04-02T19:23:53.319Z,9.47
2023-04-02T19:26:26.957Z,9.29
2023-04-02T19:29:08.696Z,9.42
2023-04-02T19:32:16.036Z,9.44
2023-04-02T19:35:31.770Z,9.42
2023-04-02T19:38:37.002Z,9.55
2023-04-02T19:41:16.262Z,9.64
2023-04-02T19:43:44.524Z,9.52
2023-04-02T19:46:12.758Z,9.46
2023-04-02T19:49:03.189Z,9.56
2023-04-02T19:51:31.389Z,9.42
2023-04-02T19:54:01.064Z,9.29
2023-04-02T19:56:29.197Z,9.12
2023-04-02T19:58:58.305Z,9.11
2023-04-02T20:01:28.528Z,9.04
2023-04-02T20:03:56.954Z,9.02
2023-04-02T20:06:25.248Z,8.83
2023-04-02T20:08:53.370Z,8.81
2023-04-02T20:11:21.689Z,8.90
2023-04-02T20:13:50.367Z,8.96
2023-04-02T20:16:18.665Z,8.77
2023-04-02T20:18:58.353Z,8.60
2023-04-02T20:21:34.673Z,8.59
2023-04-02T20:24:02.845Z,8.63
2023-04-02T20:26:31.018Z,8.47
2023-04-02T20:28:59.056Z,8.44
2023-04-02T20:31:27.505Z,8.66
2023-04-02T20:33:59.448Z,8.72
2023-04-02T20:36:27.982Z,8.83
2023-04-02T20:38:57.518Z,8.70
2023-04-02T20:41:26.697Z,8.65
2023-04-02T20:43:55.035Z,8.55
2023-04-02T20:46:34.069Z,8.65
2023-04-02T20:49:02.552Z,8.56
2023-04-02T20:51:30.819Z,8.47
2023-04-02T20:53:59.232Z,8.56
2023-04-02T20:56:30.409Z,8.49
2023-04-02T20:58:58.732Z,8.28
2023-04-02T21:01:29.412Z,8.38
2023-04-02T21:04:02.326Z,8.32
2023-04-02T21:06:36.708Z,8.32
2023-04-02T21:09:08.670Z,8.28
2023-04-02T21:11:37.298Z,8.32
2023-04-02T21:14:05.606Z,8.12
2023-04-02T21:16:36.917Z,7.83
2023-04-02T21:19:15.453Z,7.99
2023-04-02T21:21:44.971Z,8.06
2023-04-02T21:24:16.303Z,8.14
2023-04-02T21:26:46.567Z,8.10
2023-04-02T21:29:15.281Z,8.19
2023-04-02T21:31:43.416Z,8.25
2023-04-02T21:34:16.206Z,8.45
2023-04-02T21:36:46.272Z,8.32
2023-04-02T21:39:37.869Z,8.33
2023-04-02T21:42:08.773Z,8.12
2023-04-02T21:44:36.807Z,8.16
2023-04-02T21:47:05.093Z,7.99
2023-04-02T21:49:33.209Z,7.73
2023-04-02T21:52:01.575Z,7.69
2023-04-02T21:54:30.468Z,7.57
2023-04-02T21:56:58.863Z,7.54
2023-04-02T21:59:27.092Z,7.49
2023-04-02T22:02:15.647Z,7.67
2023-04-02T22:04:43.996Z,7.68
2023-04-02T22:07:14.414Z,7.81
2023-04-02T22:09:42.686Z,7.95
2023-04-02T22:12:11.011Z,7.98
2023-04-02T22:14:39.051Z,8.00
2023-04-02T22:17:07.479Z,7.95
2023-04-02T22:19:35.814Z,7.93
2023-04-02T22:22:04.016Z,7.96
2023-04-02T22:24:32.237Z,7.97
2023-04-02T22:27:00.844Z,7.99
2023-04-02T22:29:49.293Z,8.08
2023-04-02T22:32:21.745Z,8.16
2023-04-02T22:34:55.293Z,8.08
2023-04-02T22:37:26.567Z,7.94
2023-04-02T22:39:57.633Z,7.87
2023-04-02T22:42:26.825Z,7.85
2023-04-02T22:44:54.881Z,7.82
2023-04-02T22:47:22.868Z,7.62
2023-04-02T22:49:50.945Z,7.33
2023-04-02T22:52:18.862Z,7.34
2023-04-02T22:54:47.619Z,7.26
2023-04-02T22:57:15.808Z,7.25
2023-04-02T22:59:47.017Z,7.34
2023-04-02T23:02:15.042Z,7.46
2023-04-02T23:04:52.056Z,7.54
2023-04-02T23:07:23.144Z,7.56
2023-04-02T23:09:51.416Z,7.52
2023-04-02T23:12:31.976Z,7.32
2023-04-02T23:15:02.158Z,7.22
2023-04-02T23:17:31.478Z,7.19
2023-04-02T23:19:59.572Z,6.97
2023-04-02T23:22:27.829Z,7.06
2023-04-02T23:24:56.610Z,7.15
2023-04-02T23:27:32.239Z,7.18
2023-04-02T23:30:00.267Z,7.26
2023-04-02T23:32:28.291Z,7.21
2023-04-02T23:34:56.275Z,7.19
2023-04-02T23:37:24.303Z,7.08
2023-04-02T23:39:52.291Z,7.00
2023-04-02T23:42:20.419Z,7.19
2023-04-02T23:44:48.502Z,7.18
2023-04-02T23:47:16.774Z,6.86
2023-04-02T23:49:47.877Z,6.71
2023-04-02T23:52:16.062Z,6.65
2023-04-02T23:54:44.070Z,6.54
2023-04-02T23:57:12.251Z,6.51
2023-04-02T23:59:40.375Z,6.63
